createdAt,value
2019-03-12T00:02:15.695Z,69.40
2019-03-12T00:04:43.943Z,69.60
2019-03-12T00:07:12.182Z,69.30
2019-03-12T00:09:40.674Z,69.30
2019-03-12T00:12:08.948Z,68.90
2019-03-12T00:14:37.247Z,69.10
2019-03-12T00:17:05.491Z,68.90
2019-03-12T00:19:33.744Z,69.20
2019-03-12T00:22:02.016Z,68.80
2019-03-12T00:24:30.239Z,69.30
2019-03-12T00:26:58.482Z,69.00
2019-03-12T00:29:26.732Z,69.30
2019-03-12T00:31:54.999Z,69.60
2019-03-12T00:34:23.277Z,69.30
2019-03-12T00:36:51.593Z,69.50
2019-03-12T00:39:19.829Z,69.50
2019-03-12T00:41:48.095Z,69.70
2019-03-12T00:44:16.379Z,69.60
2019-03-12T00:46:44.638Z,69.20
2019-03-12T00:49:12.905Z,69.20
2019-03-12T00:51:41.164Z,68.50
2019-03-12T00:54:09.440Z,68.60
2019-03-12T00:56:37.723Z,68.40
2019-03-12T00:59:05.950Z,68.40
2019-03-12T01:01:34.187Z,68.90
2019-03-12T01:04:02.470Z,69.10
2019-03-12T01:06:30.719Z,69.00
2019-03-12T01:08:59.011Z,69.00
2019-03-12T01:11:27.296Z,69.00
2019-03-12T01:13:55.564Z,69.60
2019-03-12T01:16:23.873Z,69.90
2019-03-12T01:18:52.118Z,69.80
2019-03-12T01:21:20.409Z,70.50
2019-03-12T01:23:48.676Z,71.00
2019-03-12T01:26:16.922Z,71.50
2019-03-12T01:28:45.202Z,71.60
2019-03-12T01:31:13.442Z,71.70
2019-03-12T01:33:41.697Z,71.10
2019-03-12T01:36:09.969Z,71.00
2019-03-12T01:38:38.217Z,71.00
2019-03-12T01:41:06.488Z,71.20
2019-03-12T01:43:34.754Z,70.90
2019-03-12T01:46:03.025Z,70.70
2019-03-12T01:48:31.318Z,70.80
2019-03-12T01:50:59.597Z,70.80
2019-03-12T01:53:27.920Z,70.80
2019-03-12T01:55:56.166Z,71.20
2019-03-12T01:58:24.410Z,70.90
2019-03-12T02:00:52.682Z,71.30
2019-03-12T02:03:20.975Z,71.30
2019-03-12T02:05:49.282Z,70.90
2019-03-12T02:08:17.528Z,70.60
2019-03-12T02:10:45.825Z,70.20
2019-03-12T02:13:14.089Z,70.30
2019-03-12T02:15:42.341Z,70.60
2019-03-12T02:18:10.679Z,70.20
2019-03-12T02:20:38.921Z,70.10
2019-03-12T02:23:07.165Z,69.20
2019-03-12T02:25:35.425Z,69.50
2019-03-12T02:28:03.690Z,69.80
2019-03-12T02:30:32.039Z,69.10
2019-03-12T02:33:00.420Z,68.70
2019-03-12T02:35:28.676Z,68.60
2019-03-12T02:37:56.961Z,68.40
2019-03-12T02:40:25.270Z,68.30
2019-03-12T02:42:53.537Z,68.10
2019-03-12T02:45:21.795Z,68.30
2019-03-12T02:47:50.074Z,68.10
2019-03-12T02:50:18.343Z,68.40
2019-03-12T02:52:46.607Z,67.90
2019-03-12T02:55:14.939Z,67.80
2019-03-12T02:57:43.308Z,67.80
2019-03-12T03:00:19.174Z,67.70
2019-03-12T03:02:47.424Z,67.80
2019-03-12T03:05:15.713Z,67.60
2019-03-12T03:07:57.817Z,67.30
2019-03-12T03:10:26.146Z,67.60
2019-03-12T03:12:54.394Z,67.50
2019-03-12T03:15:46.502Z,67.70
2019-03-12T03:18:14.756Z,67.80
2019-03-12T03:20:43.098Z,67.30
2019-03-12T03:23:11.353Z,67.50
2019-03-12T03:25:39.614Z,68.30
2019-03-12T03:28:07.878Z,67.20
2019-03-12T03:30:36.136Z,67.40
2019-03-12T03:33:04.394Z,67.00
2019-03-12T03:35:32.725Z,67.10
2019-03-12T03:38:00.987Z,66.30
2019-03-12T03:40:29.236Z,66.30
2019-03-12T03:42:57.575Z,66.50
2019-03-12T03:45:25.849Z,66.80
2019-03-12T03:47:54.103Z,67.20
2019-03-12T03:50:22.374Z,67.00
2019-03-12T03:52:50.642Z,67.10
2019-03-12T03:55:21.287Z,67.00
2019-03-12T03:57:49.604Z,66.90
2019-03-12T04:00:24.801Z,66.80
2019-03-12T04:02:53.130Z,67.00
2019-03-12T04:05:21.393Z,67.00
2019-03-12T04:07:49.683Z,66.90
2019-03-12T04:10:17.937Z,67.10
2019-03-12T04:12:46.254Z,66.80
2019-03-12T04:15:15.678Z,67.00
2019-03-12T04:17:43.993Z,67.20
2019-03-12T04:20:13.694Z,67.20
2019-03-12T04:22:41.958Z,67.40
2019-03-12T04:25:10.302Z,67.30
2019-03-12T04:27:38.568Z,67.60
2019-03-12T04:30:10.087Z,67.80
2019-03-12T04:32:38.349Z,67.90
2019-03-12T04:35:09.749Z,67.90
2019-03-12T04:37:38.007Z,68.00
2019-03-12T04:40:09.434Z,68.20
2019-03-12T04:42:37.698Z,67.80
2019-03-12T04:45:11.823Z,67.50
2019-03-12T04:47:40.073Z,68.00
2019-03-12T04:50:09.066Z,68.00
2019-03-12T04:52:37.331Z,67.80
2019-03-12T04:55:14.514Z,67.80
2019-03-12T04:57:42.789Z,68.10
2019-03-12T05:00:16.286Z,68.20
2019-03-12T05:02:44.557Z,67.90
2019-03-12T05:05:12.882Z,67.90
2019-03-12T05:07:41.129Z,67.80
2019-03-12T05:10:14.533Z,67.70
2019-03-12T05:12:42.790Z,67.30
2019-03-12T05:15:14.977Z,67.40
2019-03-12T05:17:43.794Z,67.40
2019-03-12T05:20:13.586Z,67.50
2019-03-12T05:22:41.916Z,67.80
2019-03-12T05:25:14.263Z,67.00
2019-03-12T05:27:42.654Z,67.10
2019-03-12T05:30:13.753Z,67.10
2019-03-12T05:32:41.998Z,67.50
2019-03-12T05:35:10.239Z,67.20
2019-03-12T05:37:38.506Z,67.10
2019-03-12T05:40:12.610Z,67.20
2019-03-12T05:42:40.882Z,67.80
2019-03-12T05:45:12.182Z,67.10
2019-03-12T05:47:40.601Z,67.00
2019-03-12T05:50:11.830Z,67.20
2019-03-12T05:52:40.094Z,67.10
2019-03-12T05:55:09.781Z,67.40
2019-03-12T05:57:38.061Z,67.20
2019-03-12T06:00:09.733Z,67.20
2019-03-12T06:02:38.006Z,67.50
2019-03-12T06:05:07.182Z,67.50
2019-03-12T06:07:35.462Z,67.30
2019-03-12T06:10:09.235Z,67.40
2019-03-12T06:12:37.484Z,67.10
2019-03-12T06:15:11.598Z,67.20
2019-03-12T06:17:39.846Z,67.20
2019-03-12T06:20:10.735Z,66.70
2019-03-12T06:22:39.000Z,66.80
2019-03-12T06:25:07.264Z,66.70
2019-03-12T06:27:35.513Z,66.90
2019-03-12T06:30:05.250Z,67.00
2019-03-12T06:32:35.133Z,66.90
2019-03-12T06:35:05.513Z,66.80
2019-03-12T06:37:38.400Z,66.90
2019-03-12T06:40:24.632Z,66.80
2019-03-12T06:43:00.609Z,66.90
2019-03-12T06:45:30.585Z,67.20
2019-03-12T06:48:06.526Z,66.60
2019-03-12T06:50:36.433Z,66.50
2019-03-12T06:53:24.687Z,66.40
2019-03-12T06:55:54.598Z,66.70
2019-03-12T06:58:30.391Z,66.80
2019-03-12T07:01:12.730Z,66.50
2019-03-12T07:03:42.719Z,66.50
2019-03-12T07:06:24.655Z,66.40
2019-03-12T07:09:11.011Z,65.90
2019-03-12T07:11:40.898Z,66.10
2019-03-12T07:14:10.809Z,66.40
2019-03-12T07:16:59.095Z,67.00
2019-03-12T07:19:35.010Z,66.00
2019-03-12T07:22:10.877Z,65.60
2019-03-12T07:24:40.761Z,65.90
2019-03-12T07:27:13.541Z,65.90
2019-03-12T07:29:43.425Z,65.50
2019-03-12T07:32:19.083Z,65.30
2019-03-12T07:34:54.693Z,65.70
2019-03-12T07:37:24.621Z,65.60
2019-03-12T07:39:54.518Z,64.10
2019-03-12T07:42:42.887Z,64.50
2019-03-12T07:45:31.105Z,64.40
2019-03-12T07:48:00.989Z,64.90
2019-03-12T07:50:36.773Z,64.60
2019-03-12T07:53:12.813Z,64.20
2019-03-12T07:56:01.007Z,64.10
2019-03-12T07:58:42.885Z,63.30
2019-03-12T08:01:29.293Z,63.60
2019-03-12T08:04:11.440Z,63.60
2019-03-12T08:06:47.036Z,63.90
2019-03-12T08:09:33.213Z,63.80
2019-03-12T08:12:21.499Z,64.10
2019-03-12T08:15:07.638Z,63.70
2019-03-12T08:17:46.610Z,61.80
2019-03-12T08:20:16.497Z,61.30
2019-03-12T08:22:46.394Z,60.80
2019-03-12T08:25:31.110Z,60.10
2019-03-12T08:28:00.994Z,60.00
2019-03-12T08:30:30.924Z,59.80
2019-03-12T08:33:00.811Z,59.50
2019-03-12T08:35:30.711Z,58.30
2019-03-12T08:38:03.066Z,58.40
2019-03-12T08:40:52.716Z,58.20
2019-03-12T08:43:36.298Z,59.00
2019-03-12T08:46:06.206Z,60.00
2019-03-12T08:48:41.998Z,57.00
2019-03-12T08:51:11.902Z,55.70
2019-03-12T08:53:44.513Z,55.00
2019-03-12T08:56:32.825Z,55.80
2019-03-12T08:59:02.564Z,55.10
2019-03-12T09:01:38.269Z,53.30
2019-03-12T09:04:14.161Z,53.40
2019-03-12T09:06:53.097Z,53.20
2019-03-12T09:09:22.993Z,54.10
2019-03-12T09:12:09.160Z,53.70
2019-03-12T09:14:48.186Z,52.70
2019-03-12T09:17:18.125Z,52.80
2019-03-12T09:20:04.594Z,53.70
2019-03-12T09:22:34.550Z,53.00
2019-03-12T09:25:11.362Z,52.70
2019-03-12T09:28:10.372Z,53.30
2019-03-12T09:30:58.324Z,52.80
2019-03-12T09:33:28.225Z,53.40
2019-03-12T09:36:13.419Z,53.50
2019-03-12T09:38:43.325Z,53.80
2019-03-12T09:41:28.322Z,54.00
2019-03-12T09:44:00.836Z,54.00
2019-03-12T09:46:30.736Z,54.30
2019-03-12T09:49:03.414Z,53.70
2019-03-12T09:51:42.462Z,53.70
2019-03-12T09:54:28.643Z,52.20
2019-03-12T09:57:01.303Z,52.70
2019-03-12T09:59:46.605Z,53.00
2019-03-12T10:02:16.566Z,53.00
2019-03-12T10:04:58.673Z,52.40
2019-03-12T10:07:31.269Z,52.10
2019-03-12T10:10:17.379Z,51.70
2019-03-12T10:12:59.401Z,52.20
2019-03-12T10:15:45.810Z,50.40
2019-03-12T10:18:32.185Z,49.40
2019-03-12T10:21:11.325Z,49.40
2019-03-12T10:23:56.329Z,48.10
2019-03-12T10:26:31.953Z,49.40
2019-03-12T10:29:04.586Z,48.70
2019-03-12T10:31:43.585Z,49.30
2019-03-12T10:34:28.910Z,50.10
2019-03-12T10:36:47.858Z,50.00
2019-03-12T10:39:55.702Z,49.50
2019-03-12T10:42:34.583Z,50.00
2019-03-12T10:45:10.466Z,50.40
2019-03-12T10:47:40.391Z,50.10
2019-03-12T10:50:09.277Z,48.30
2019-03-12T10:52:37.560Z,48.00
2019-03-12T10:55:13.066Z,48.40
2019-03-12T10:57:37.518Z,48.50
2019-03-12T11:00:11.811Z,48.70
2019-03-12T11:02:40.792Z,48.30
2019-03-12T11:05:09.237Z,47.20
2019-03-12T11:07:37.486Z,46.80
2019-03-12T11:10:18.964Z,47.10
2019-03-12T11:12:47.288Z,46.90
2019-03-12T11:15:16.112Z,46.70
2019-03-12T11:17:49.683Z,46.90
2019-03-12T11:20:20.451Z,47.10
2019-03-12T11:22:48.685Z,46.30
2019-03-12T11:25:26.534Z,47.20
2019-03-12T11:27:46.934Z,47.20
2019-03-12T11:30:19.862Z,47.70
2019-03-12T11:32:48.212Z,47.30
2019-03-12T11:35:16.471Z,45.90
2019-03-12T11:37:44.749Z,44.30
2019-03-12T11:40:18.901Z,44.10
2019-03-12T11:42:47.285Z,42.20
2019-03-12T11:45:19.592Z,42.60
2019-03-12T11:47:47.265Z,43.30
2019-03-12T11:50:18.269Z,42.80
2019-03-12T11:52:54.755Z,40.80
2019-03-12T11:55:16.603Z,47.40
2019-03-12T11:57:45.033Z,40.70
2019-03-12T12:00:26.863Z,38.90
2019-03-12T12:03:00.395Z,39.50
2019-03-12T12:05:25.255Z,38.80
2019-03-12T12:07:53.730Z,37.80
2019-03-12T12:10:22.185Z,36.00
2019-03-12T12:12:50.746Z,35.90
2019-03-12T12:15:21.863Z,35.50
2019-03-12T12:17:50.163Z,35.30
2019-03-12T12:20:29.446Z,35.20
2019-03-12T12:22:51.927Z,33.80
2019-03-12T12:25:21.606Z,33.80
2019-03-12T12:27:49.955Z,32.70
2019-03-12T12:30:24.509Z,36.30
2019-03-12T12:32:52.883Z,34.40
2019-03-12T12:37:49.246Z,55.90
2019-03-12T12:40:18.800Z,41.70
2019-03-12T12:42:47.092Z,41.30
2019-03-12T12:45:29.566Z,45.50
2019-03-12T12:47:57.825Z,43.70
2019-03-12T12:50:26.078Z,43.60
2019-03-12T12:52:54.407Z,42.20
2019-03-12T12:55:22.680Z,42.30
2019-03-12T12:57:51.061Z,40.70
2019-03-12T13:00:22.578Z,41.70
2019-03-12T13:02:52.488Z,42.00
2019-03-12T13:05:20.820Z,42.10
2019-03-12T13:07:49.104Z,41.80
2019-03-12T13:10:25.641Z,43.30
2019-03-12T13:12:53.948Z,45.70
2019-03-12T13:15:22.265Z,49.70
2019-03-12T13:17:50.525Z,49.70
2019-03-12T13:20:18.797Z,48.40
2019-03-12T13:22:47.049Z,24.90
2019-03-12T13:25:16.445Z,24.80
2019-03-12T13:27:44.765Z,25.90
2019-03-12T13:30:20.917Z,25.20
2019-03-12T13:32:49.190Z,34.50
2019-03-12T13:35:18.221Z,30.80
2019-03-12T13:37:46.555Z,28.80
2019-03-12T13:40:23.235Z,23.20
2019-03-12T13:42:51.623Z,21.00
2019-03-12T13:45:22.425Z,20.80
2019-03-12T13:47:50.857Z,21.90
2019-03-12T13:50:20.795Z,21.90
2019-03-12T13:52:49.784Z,20.20
2019-03-12T13:55:18.350Z,20.10
2019-03-12T13:57:46.687Z,20.50
2019-03-12T14:00:20.014Z,20.40
2019-03-12T14:02:48.277Z,19.60
2019-03-12T14:05:16.605Z,20.90
2019-03-12T14:07:44.960Z,19.70
2019-03-12T14:10:18.334Z,20.30
2019-03-12T14:12:46.681Z,19.80
2019-03-12T14:15:33.810Z,18.70
2019-03-12T14:18:02.112Z,19.60
2019-03-12T14:20:45.745Z,19.30
2019-03-12T14:23:34.681Z,19.70
2019-03-12T14:26:02.930Z,19.30
2019-03-12T14:28:31.221Z,19.60
2019-03-12T14:30:59.501Z,19.20
2019-03-12T14:33:27.821Z,19.20
2019-03-12T14:35:56.157Z,17.30
2019-03-12T14:38:24.506Z,17.00
2019-03-12T14:40:52.779Z,16.00
2019-03-12T14:43:21.038Z,17.40
2019-03-12T14:45:51.404Z,17.70
2019-03-12T14:48:43.828Z,17.40
2019-03-12T14:51:30.107Z,18.00
2019-03-12T14:54:09.667Z,18.30
2019-03-12T14:56:37.935Z,17.70
2019-03-12T14:59:06.254Z,17.90
2019-03-12T15:01:34.534Z,16.30
2019-03-12T15:04:02.786Z,17.30
2019-03-12T15:06:31.056Z,18.10
2019-03-12T15:08:59.314Z,17.40
2019-03-12T15:11:27.573Z,17.80
2019-03-12T15:13:55.838Z,17.30
2019-03-12T15:16:24.107Z,17.00
2019-03-12T15:21:20.614Z,15.10
2019-03-12T15:23:48.889Z,15.30
2019-03-12T15:26:17.153Z,16.00
2019-03-12T15:28:45.424Z,16.80
2019-03-12T15:31:13.684Z,16.40
2019-03-12T15:33:41.951Z,17.30
2019-03-12T15:36:10.201Z,17.10
2019-03-12T15:38:38.471Z,18.30
2019-03-12T15:41:06.723Z,20.50
2019-03-12T15:48:32.325Z,19.40
2019-03-12T15:51:00.795Z,20.50
2019-03-12T15:53:29.121Z,20.90
2019-03-12T15:55:57.400Z,21.00
2019-03-12T15:58:25.709Z,20.90
2019-03-12T16:00:54.186Z,21.90
2019-03-12T16:03:22.462Z,21.90
2019-03-12T16:05:50.741Z,22.10
2019-03-12T16:08:18.986Z,21.60
2019-03-12T16:10:57.319Z,22.60
2019-03-12T16:13:17.464Z,22.70
2019-03-12T16:15:45.845Z,22.90
2019-03-12T16:18:14.709Z,23.60
2019-03-12T16:20:43.150Z,23.60
2019-03-12T16:23:11.421Z,23.30
2019-03-12T16:25:39.681Z,23.80
2019-03-12T16:30:36.012Z,35.70
2019-03-12T16:33:04.356Z,24.80
2019-03-12T16:35:32.616Z,25.40
2019-03-12T16:38:00.871Z,25.80
2019-03-12T16:40:29.144Z,25.80
2019-03-12T16:42:57.438Z,25.90
2019-03-12T16:45:25.739Z,26.00
2019-03-12T16:47:53.996Z,26.40
2019-03-12T16:50:22.320Z,26.50
2019-03-12T16:52:50.671Z,26.60
2019-03-12T16:55:19.393Z,27.10
2019-03-12T16:57:47.670Z,27.40
2019-03-12T17:00:21.286Z,27.10
2019-03-12T17:02:49.576Z,27.40
2019-03-12T17:05:17.823Z,40.10
2019-03-12T17:07:46.124Z,27.60
2019-03-12T17:10:21.022Z,27.90
2019-03-12T17:12:49.301Z,28.30
2019-03-12T17:15:22.310Z,29.30
2019-03-12T17:17:50.621Z,29.80
2019-03-12T17:20:18.897Z,30.10
2019-03-12T17:22:47.141Z,30.70
2019-03-12T17:25:15.466Z,31.40
2019-03-12T17:27:43.794Z,31.30
2019-03-12T17:30:17.530Z,31.70
2019-03-12T17:32:45.805Z,32.10
2019-03-12T17:35:17.738Z,32.40
2019-03-12T17:37:46.042Z,32.70
2019-03-12T17:40:19.607Z,32.90
2019-03-12T17:42:47.926Z,33.20
2019-03-12T17:45:16.183Z,33.40
2019-03-12T17:47:45.026Z,33.70
2019-03-12T17:50:13.962Z,34.10
2019-03-12T17:52:42.216Z,34.30
2019-03-12T17:55:14.256Z,34.50
2019-03-12T17:57:42.739Z,34.70
2019-03-12T18:00:14.363Z,34.70
2019-03-12T18:02:43.047Z,34.60
2019-03-12T18:05:12.593Z,34.70
2019-03-12T18:07:40.847Z,35.00
2019-03-12T18:10:11.633Z,35.00
2019-03-12T18:12:39.958Z,35.30
2019-03-12T18:15:14.183Z,35.30
2019-03-12T18:17:42.442Z,35.50
2019-03-12T18:20:12.845Z,35.70
2019-03-12T18:22:41.136Z,36.40
2019-03-12T18:25:28.046Z,35.70
2019-03-12T18:27:56.313Z,35.80
2019-03-12T18:30:24.598Z,36.10
2019-03-12T18:32:52.942Z,35.80
2019-03-12T18:35:21.227Z,35.80
2019-03-12T18:37:49.544Z,35.70
2019-03-12T18:40:20.412Z,36.20
2019-03-12T18:42:48.706Z,36.10
2019-03-12T18:45:28.023Z,36.40
2019-03-12T18:47:56.409Z,36.60
2019-03-12T18:50:24.734Z,36.60
2019-03-12T18:52:53.107Z,37.50
2019-03-12T18:55:33.747Z,36.80
2019-03-12T18:58:02.804Z,37.00
2019-03-12T19:00:31.973Z,37.20
2019-03-12T19:03:00.314Z,36.90
2019-03-12T19:05:28.650Z,37.20
2019-03-12T19:07:56.893Z,37.50
2019-03-12T19:10:25.156Z,37.70
2019-03-12T19:12:53.414Z,37.30
2019-03-12T19:15:21.725Z,37.30
2019-03-12T19:17:50.001Z,37.70
2019-03-12T19:20:18.992Z,37.60
2019-03-12T19:22:47.233Z,37.30
2019-03-12T19:25:20.392Z,37.50
2019-03-12T19:27:59.245Z,37.40
2019-03-12T19:30:20.227Z,37.90
2019-03-12T19:32:56.331Z,38.10
2019-03-12T19:35:26.233Z,38.50
2019-03-12T19:37:54.495Z,38.70
2019-03-12T19:40:25.647Z,39.10
2019-03-12T19:42:53.914Z,38.80
2019-03-12T19:45:22.169Z,38.80
2019-03-12T19:47:50.589Z,39.00
2019-03-12T19:50:20.181Z,39.40
2019-03-12T19:52:48.478Z,39.10
2019-03-12T19:55:26.056Z,38.60
2019-03-12T19:57:54.302Z,38.60
2019-03-12T20:00:24.254Z,38.30
2019-03-12T20:02:55.734Z,38.20
2019-03-12T20:05:24.009Z,38.00
2019-03-12T20:07:52.327Z,38.40
2019-03-12T20:10:57.520Z,38.10
2019-03-12T20:14:02.526Z,38.20
2019-03-12T20:16:49.033Z,38.10
2019-03-12T20:19:32.603Z,38.00
2019-03-12T20:22:26.720Z,38.20
2019-03-12T20:25:30.020Z,38.40
2019-03-12T20:28:30.505Z,38.50
2019-03-12T20:31:07.700Z,38.50
2019-03-12T20:33:59.009Z,38.80
2019-03-12T20:36:33.495Z,38.80
2019-03-12T20:39:16.950Z,38.60
2019-03-12T20:42:02.902Z,38.90
2019-03-12T20:45:07.773Z,38.90
2019-03-12T20:47:54.605Z,39.80
2019-03-12T20:50:34.394Z,39.50
2019-03-12T20:53:20.789Z,39.50
2019-03-12T20:56:10.213Z,39.40
2019-03-12T20:58:50.784Z,39.20
2019-03-12T21:01:42.034Z,39.20
2019-03-12T21:04:46.689Z,39.50
2019-03-12T21:07:33.001Z,39.50
2019-03-12T21:10:07.499Z,39.20
2019-03-12T21:13:03.215Z,38.90
2019-03-12T21:16:08.178Z,39.40
2019-03-12T21:19:05.526Z,39.10
2019-03-12T21:22:03.890Z,38.90
2019-03-12T21:24:40.056Z,50.90
2019-03-12T21:27:23.204Z,43.30
2019-03-12T21:29:51.023Z,49.40
2019-03-12T21:32:19.348Z,50.60
2019-03-12T21:34:49.280Z,51.90
2019-03-12T21:37:17.545Z,55.20
2019-03-12T21:39:55.304Z,55.00
2019-03-12T21:42:15.768Z,51.60
2019-03-12T21:44:44.033Z,52.80
2019-03-12T21:47:12.479Z,49.70
2019-03-12T21:49:40.803Z,49.70
2019-03-12T21:52:09.050Z,51.20
2019-03-12T21:54:37.313Z,53.60
2019-03-12T21:57:05.560Z,40.20
2019-03-12T21:59:33.821Z,40.40
2019-03-12T22:02:02.069Z,40.50
2019-03-12T22:04:30.311Z,40.80
2019-03-12T22:06:58.545Z,41.10
2019-03-12T22:09:26.798Z,41.30
2019-03-12T22:11:55.057Z,41.10
2019-03-12T22:14:23.334Z,41.20
2019-03-12T22:16:52.891Z,41.40
2019-03-12T22:19:21.176Z,41.30
2019-03-12T22:21:53.846Z,41.40
2019-03-12T22:24:22.080Z,41.40
2019-03-12T22:26:50.393Z,41.50
2019-03-12T22:29:18.623Z,41.50
2019-03-12T22:31:47.008Z,41.60
2019-03-12T22:34:16.767Z,41.80
2019-03-12T22:36:45.020Z,41.70
2019-03-12T22:39:13.272Z,41.90
2019-03-12T22:41:41.498Z,42.00
2019-03-12T22:44:09.756Z,42.00
2019-03-12T22:46:37.989Z,42.10
2019-03-12T22:49:06.258Z,41.60
2019-03-12T22:51:34.522Z,41.40
2019-03-12T22:54:02.830Z,41.30
2019-03-12T22:56:31.093Z,41.20
2019-03-12T22:58:59.333Z,41.20
2019-03-12T23:01:27.592Z,41.30
2019-03-12T23:03:55.836Z,41.50
2019-03-12T23:06:24.096Z,41.60
2019-03-12T23:08:52.361Z,40.90
2019-03-12T23:11:20.600Z,40.80
2019-03-12T23:13:48.869Z,40.70
2019-03-12T23:16:17.094Z,41.10
2019-03-12T23:18:45.334Z,41.40
2019-03-12T23:21:13.595Z,41.00
2019-03-12T23:23:41.872Z,41.40
2019-03-12T23:26:10.114Z,41.60
2019-03-12T23:28:38.351Z,41.90
2019-03-12T23:31:06.738Z,41.80
2019-03-12T23:33:35.062Z,41.20
2019-03-12T23:36:03.293Z,41.30
2019-03-12T23:38:31.624Z,41.80
2019-03-12T23:40:59.889Z,42.10
2019-03-12T23:43:28.163Z,41.80
2019-03-12T23:45:56.416Z,41.90
2019-03-12T23:48:24.684Z,41.90
2019-03-12T23:50:52.970Z,41.80
2019-03-12T23:53:21.198Z,41.10
2019-03-12T23:55:49.449Z,41.20
2019-03-12T23:58:17.703Z,41.20
